Lodi Township, Michigan
Current Conditions -  °F | °C
As of 9:53 PM on Wednesday 26 Nov 2014 (Local Time) from KARB Reporting Station
Overcast Overcast  
Wind Chill: 23°   Ceiling: 4500
Heat Index: 31°   Visibility: 10mi
Dew Point: 23°   Wind: 8mph
Humidity: 72%   Direction: 360°N
Pressure: 30.08"   Gusts: NA
Location:  42.2601°N, 83.8448°W
Report Text: KARB 270253Z AUTO 36007KT 10SM OVC045 M01/M05 A3008 RMK AO2 SLP194 T10061050 55000
Loading
Personal Weather Stations






























Interactive Weather Map New forecast layout! Learn more

10-Day Weather Forecast

Advertisements
Track Severe Weather on mobile